createdAt,value
2023-03-06T00:02:21.077Z,81.60
2023-03-06T00:05:08.938Z,81.50
2023-03-06T00:07:56.011Z,81.50
2023-03-06T00:10:44.918Z,81.40
2023-03-06T00:13:34.320Z,81.40
2023-03-06T00:16:21.623Z,81.50
2023-03-06T00:19:09.118Z,81.60
2023-03-06T00:21:56.200Z,81.50
2023-03-06T00:24:43.323Z,81.60
2023-03-06T00:27:32.242Z,81.60
2023-03-06T00:30:23.196Z,81.70
2023-03-06T00:33:10.258Z,81.90
2023-03-06T00:35:57.530Z,81.80
2023-03-06T00:38:44.676Z,82.00
2023-03-06T00:41:31.942Z,82.00
2023-03-06T00:44:20.438Z,81.90
2023-03-06T00:47:07.721Z,82.10
2023-03-06T00:49:54.561Z,82.10
2023-03-06T00:52:42.187Z,82.20
2023-03-06T00:55:31.372Z,82.10
2023-03-06T00:58:18.960Z,82.00
2023-03-06T01:01:07.390Z,81.90
2023-03-06T01:03:54.461Z,82.00
2023-03-06T01:06:41.666Z,82.20
2023-03-06T01:09:29.434Z,82.00
2023-03-06T01:12:16.887Z,82.10
2023-03-06T01:15:04.405Z,82.10
2023-03-06T01:17:55.662Z,82.40
2023-03-06T01:20:42.644Z,82.20
2023-03-06T01:23:29.981Z,82.20
2023-03-06T01:26:17.072Z,82.20
2023-03-06T01:29:04.537Z,82.20
2023-03-06T01:31:51.941Z,82.40
2023-03-06T01:34:40.460Z,82.50
2023-03-06T01:37:27.257Z,82.60
2023-03-06T01:40:14.865Z,82.40
2023-03-06T01:43:10.820Z,82.30
2023-03-06T01:46:27.831Z,82.60
2023-03-06T01:49:17.826Z,82.70
2023-03-06T01:52:10.448Z,82.60
2023-03-06T01:55:01.689Z,82.90
2023-03-06T01:57:53.451Z,83.00
2023-03-06T02:00:40.693Z,82.80
2023-03-06T02:03:29.777Z,83.00
2023-03-06T02:06:19.873Z,83.10
2023-03-06T02:09:08.469Z,83.20
2023-03-06T02:11:55.209Z,83.30
2023-03-06T02:14:43.763Z,83.30
2023-03-06T02:17:31.132Z,83.50
2023-03-06T02:20:27.813Z,83.50
2023-03-06T02:23:22.684Z,83.50
2023-03-06T02:26:12.611Z,83.60
2023-03-06T02:28:59.848Z,83.60
2023-03-06T02:31:47.420Z,83.70
2023-03-06T02:34:52.980Z,83.80
2023-03-06T02:37:40.323Z,83.90
2023-03-06T02:40:27.710Z,84.00
2023-03-06T02:43:18.281Z,84.20
2023-03-06T02:46:05.564Z,84.30
2023-03-06T02:48:52.616Z,84.50
2023-03-06T02:51:41.988Z,84.60
2023-03-06T02:54:29.205Z,85.40
2023-03-06T02:57:16.417Z,84.70
2023-03-06T03:00:05.593Z,84.80
2023-03-06T03:02:52.971Z,84.90
2023-03-06T03:05:40.511Z,84.80
2023-03-06T03:08:35.982Z,85.00
2023-03-06T03:11:24.052Z,85.10
2023-03-06T03:14:11.291Z,85.00
2023-03-06T03:16:59.853Z,85.10
2023-03-06T03:19:47.322Z,85.40
2023-03-06T03:22:34.503Z,85.40
2023-03-06T03:25:22.723Z,85.50
2023-03-06T03:28:10.232Z,85.50
2023-03-06T03:30:57.202Z,85.60
2023-03-06T03:33:47.271Z,85.70
2023-03-06T03:36:34.709Z,85.60
2023-03-06T03:39:22.743Z,85.70
2023-03-06T03:42:09.793Z,85.80
2023-03-06T03:44:56.962Z,85.90
2023-03-06T03:47:44.634Z,86.00
2023-03-06T03:50:34.348Z,86.10
2023-03-06T03:53:22.072Z,86.10
2023-03-06T03:56:09.071Z,86.10
2023-03-06T03:59:03.679Z,86.10
2023-03-06T04:01:58.316Z,86.10
2023-03-06T04:04:45.951Z,86.10
2023-03-06T04:07:34.749Z,86.10
2023-03-06T04:10:22.636Z,86.20
2023-03-06T04:13:10.347Z,86.20
2023-03-06T04:16:01.855Z,86.30
2023-03-06T04:18:52.162Z,86.30
2023-03-06T04:21:41.107Z,86.20
2023-03-06T04:24:30.772Z,86.20
2023-03-06T04:27:18.236Z,86.50
2023-03-06T04:30:06.519Z,86.30
2023-03-06T04:32:55.008Z,86.30
2023-03-06T04:35:43.426Z,86.50
2023-03-06T04:38:38.828Z,86.50
2023-03-06T04:41:27.827Z,86.30
2023-03-06T04:44:15.204Z,86.70
2023-03-06T04:47:02.160Z,86.90
2023-03-06T04:49:49.243Z,86.90
2023-03-06T04:52:36.431Z,87.00
2023-03-06T04:55:23.456Z,87.10
2023-03-06T04:58:15.119Z,87.00
2023-03-06T05:01:02.127Z,86.90
2023-03-06T05:03:50.092Z,86.80
2023-03-06T05:06:37.281Z,87.10
2023-03-06T05:09:24.163Z,86.90
2023-03-06T05:12:11.138Z,87.10
2023-03-06T05:14:59.761Z,87.10
2023-03-06T05:17:47.662Z,87.20
2023-03-06T05:20:34.820Z,87.20
2023-03-06T05:23:22.039Z,87.10
2023-03-06T05:26:10.428Z,87.20
2023-03-06T05:28:57.545Z,87.20
2023-03-06T05:31:46.329Z,87.30
2023-03-06T05:34:33.447Z,87.30
2023-03-06T05:37:20.676Z,87.10
2023-03-06T05:40:10.347Z,87.10
2023-03-06T05:42:57.284Z,87.30
2023-03-06T05:45:44.690Z,87.30
2023-03-06T05:48:34.200Z,87.40
2023-03-06T05:51:21.486Z,87.50
2023-03-06T05:54:09.085Z,87.50
2023-03-06T05:56:57.525Z,87.70
2023-03-06T05:59:46.328Z,87.70
2023-03-06T06:02:33.505Z,87.70
2023-03-06T06:05:22.218Z,88.00
2023-03-06T06:08:09.331Z,87.90
2023-03-06T06:10:56.551Z,87.90
2023-03-06T06:13:43.901Z,87.70
2023-03-06T06:16:30.988Z,87.80
2023-03-06T06:19:20.589Z,88.00
2023-03-06T06:22:09.225Z,88.00
2023-03-06T06:24:56.211Z,87.90
2023-03-06T06:27:43.633Z,87.80
2023-03-06T06:30:31.229Z,87.70
2023-03-06T06:33:18.256Z,87.60
2023-03-06T06:36:05.539Z,87.50
2023-03-06T06:38:54.253Z,87.40
2023-03-06T06:41:59.384Z,87.40
2023-03-06T06:44:48.661Z,87.30
2023-03-06T06:47:38.633Z,87.10
2023-03-06T06:50:25.534Z,87.10
2023-03-06T06:53:12.850Z,86.90
2023-03-06T06:56:01.436Z,86.70
2023-03-06T06:58:48.382Z,86.80
2023-03-06T07:01:35.486Z,86.60
2023-03-06T07:04:22.670Z,86.40
2023-03-06T07:07:09.669Z,86.20
2023-03-06T07:09:57.019Z,86.00
2023-03-06T07:12:45.675Z,86.00
2023-03-06T07:15:32.596Z,85.70
2023-03-06T07:18:19.691Z,85.50
2023-03-06T07:21:07.997Z,85.40
2023-03-06T07:23:57.641Z,85.20
2023-03-06T07:26:47.878Z,84.90
2023-03-06T07:29:36.688Z,84.80
2023-03-06T07:32:23.677Z,84.40
2023-03-06T07:35:20.138Z,84.30
2023-03-06T07:38:07.990Z,84.00
2023-03-06T07:40:55.205Z,83.60
2023-03-06T07:43:43.290Z,83.50
2023-03-06T07:46:31.896Z,83.30
2023-03-06T07:49:18.872Z,83.10
2023-03-06T07:52:06.605Z,83.10
2023-03-06T07:54:53.630Z,82.80
2023-03-06T07:57:41.044Z,82.70
2023-03-06T08:00:28.440Z,82.60
2023-03-06T08:03:17.619Z,82.40
2023-03-06T08:06:08.933Z,82.30
2023-03-06T08:08:56.921Z,82.30
2023-03-06T08:11:45.603Z,82.30
2023-03-06T08:14:35.481Z,82.50
2023-03-06T08:17:22.594Z,82.50
2023-03-06T08:20:13.090Z,82.50
2023-03-06T08:23:00.479Z,82.50
2023-03-06T08:25:47.560Z,82.50
2023-03-06T08:28:35.528Z,82.50
2023-03-06T08:31:29.001Z,82.60
2023-03-06T08:34:18.458Z,82.40
2023-03-06T08:37:07.227Z,82.40
2023-03-06T08:39:54.299Z,82.40
2023-03-06T08:42:41.711Z,82.20
2023-03-06T08:45:28.916Z,82.30
2023-03-06T08:48:15.980Z,82.10
2023-03-06T08:51:03.409Z,82.30
2023-03-06T08:53:52.786Z,82.20
2023-03-06T08:56:40.605Z,82.10
2023-03-06T08:59:27.918Z,82.00
2023-03-06T09:02:16.173Z,81.70
2023-03-06T09:05:07.445Z,81.60
2023-03-06T09:07:54.629Z,81.60
2023-03-06T09:10:47.641Z,81.50
2023-03-06T09:13:34.646Z,81.30
2023-03-06T09:16:22.292Z,80.90
2023-03-06T09:19:09.633Z,80.60
2023-03-06T09:21:58.068Z,80.20
2023-03-06T09:24:45.487Z,80.00
2023-03-06T09:27:34.385Z,79.80
2023-03-06T09:30:21.641Z,79.70
2023-03-06T09:33:09.227Z,79.30
2023-03-06T09:35:58.793Z,78.80
2023-03-06T09:38:48.604Z,78.70
2023-03-06T09:41:38.735Z,78.50
2023-03-06T09:44:30.108Z,78.80
2023-03-06T09:47:38.786Z,78.30
2023-03-06T09:50:25.532Z,77.70
2023-03-06T09:53:43.636Z,77.40
2023-03-06T09:56:34.499Z,77.00
2023-03-06T09:59:25.191Z,76.40
2023-03-06T10:02:18.961Z,76.10
2023-03-06T10:05:11.718Z,75.90
2023-03-06T10:08:03.144Z,75.70
2023-03-06T10:10:58.784Z,75.50
2023-03-06T10:13:49.652Z,75.70
2023-03-06T10:16:36.815Z,75.40
2023-03-06T10:19:27.274Z,74.80
2023-03-06T10:22:24.640Z,74.20
2023-03-06T10:25:19.437Z,74.00
2023-03-06T10:28:16.889Z,73.90
2023-03-06T10:31:13.590Z,73.80
2023-03-06T10:34:15.100Z,73.80
2023-03-06T10:37:13.080Z,73.20
2023-03-06T10:40:10.253Z,73.20
2023-03-06T10:43:11.042Z,73.10
2023-03-06T10:45:59.299Z,72.70
2023-03-06T10:48:59.472Z,72.70
2023-03-06T10:51:58.878Z,72.90
2023-03-06T10:54:48.544Z,72.80
2023-03-06T10:57:36.237Z,72.60
2023-03-06T11:00:36.287Z,72.70
2023-03-06T11:03:25.870Z,72.40
2023-03-06T11:06:14.712Z,72.30
2023-03-06T11:09:18.518Z,71.60
2023-03-06T11:12:24.163Z,71.40
2023-03-06T11:15:22.012Z,71.60
2023-03-06T11:18:28.894Z,71.50
2023-03-06T11:21:31.715Z,71.50
2023-03-06T11:24:21.568Z,71.30
2023-03-06T11:27:25.226Z,71.80
2023-03-06T11:30:18.433Z,71.40
2023-03-06T11:33:12.529Z,71.50
2023-03-06T11:36:05.571Z,70.90
2023-03-06T11:38:54.942Z,70.30
2023-03-06T11:41:51.400Z,70.20
2023-03-06T11:44:56.124Z,70.10
2023-03-06T11:47:47.425Z,69.80
2023-03-06T11:50:37.776Z,69.70
2023-03-06T11:53:31.744Z,69.80
2023-03-06T11:56:31.878Z,70.20
2023-03-06T11:59:31.787Z,70.20
2023-03-06T12:02:30.507Z,70.40
2023-03-06T12:05:38.110Z,70.40
2023-03-06T12:08:39.537Z,70.80
2023-03-06T12:11:36.880Z,71.20
2023-03-06T12:14:36.268Z,71.30
2023-03-06T12:17:37.842Z,71.50
2023-03-06T12:20:41.388Z,71.60
2023-03-06T12:23:53.052Z,71.90
2023-03-06T12:26:53.296Z,72.00
2023-03-06T12:29:59.269Z,72.40
2023-03-06T12:32:53.736Z,72.50
2023-03-06T12:35:52.597Z,72.40
2023-03-06T12:38:54.693Z,72.10
2023-03-06T12:41:55.741Z,72.10
2023-03-06T12:45:02.774Z,72.30
2023-03-06T12:47:55.097Z,72.50
2023-03-06T12:50:44.795Z,71.90
2023-03-06T12:53:33.842Z,71.80
2023-03-06T12:56:22.447Z,72.00
2023-03-06T12:59:37.231Z,71.80
2023-03-06T13:02:47.722Z,71.60
2023-03-06T13:06:04.761Z,71.60
2023-03-06T13:09:15.618Z,71.60
2023-03-06T13:12:26.237Z,72.00
2023-03-06T13:15:35.057Z,72.30
2023-03-06T13:18:51.959Z,72.30
2023-03-06T13:21:45.110Z,72.30
2023-03-06T13:24:37.529Z,72.30
2023-03-06T13:27:47.754Z,72.50
2023-03-06T13:30:52.867Z,72.40
2023-03-06T13:33:57.354Z,72.40
2023-03-06T13:36:44.415Z,72.50
2023-03-06T13:40:07.291Z,72.60
2023-03-06T13:43:14.328Z,73.00
2023-03-06T13:46:25.132Z,72.80
2023-03-06T13:49:23.486Z,73.00
2023-03-06T13:52:20.918Z,73.00
2023-03-06T13:55:20.224Z,73.10
2023-03-06T13:58:23.937Z,73.20
2023-03-06T14:01:22.808Z,73.30
2023-03-06T14:04:35.780Z,73.20
2023-03-06T14:07:25.680Z,73.30
2023-03-06T14:10:22.638Z,73.20
2023-03-06T14:13:20.032Z,73.30
2023-03-06T14:16:19.840Z,73.20
2023-03-06T14:19:17.416Z,73.30
2023-03-06T14:22:06.016Z,73.40
2023-03-06T14:24:58.736Z,73.30
2023-03-06T14:27:50.205Z,73.20
2023-03-06T14:30:39.375Z,73.40
2023-03-06T14:33:34.733Z,73.40
2023-03-06T14:36:23.883Z,73.40
2023-03-06T14:39:16.722Z,73.30
2023-03-06T14:42:19.231Z,73.30
2023-03-06T14:45:17.455Z,73.30
2023-03-06T14:48:08.319Z,73.20
2023-03-06T14:50:58.219Z,73.80
2023-03-06T14:53:48.812Z,73.90
2023-03-06T14:56:43.239Z,73.70
2023-03-06T14:59:38.870Z,73.50
2023-03-06T15:02:30.135Z,73.20
2023-03-06T15:05:24.235Z,73.10
2023-03-06T15:08:11.677Z,73.40
2023-03-06T15:11:01.160Z,73.20
2023-03-06T15:14:02.732Z,72.80
2023-03-06T15:16:55.896Z,73.00
2023-03-06T15:19:43.114Z,72.80
2023-03-06T15:22:37.956Z,72.90
2023-03-06T15:25:30.438Z,72.80
2023-03-06T15:28:31.875Z,72.80
2023-03-06T15:31:24.342Z,73.00
2023-03-06T15:34:23.931Z,73.10
2023-03-06T15:37:31.233Z,73.20
2023-03-06T15:40:23.366Z,73.00
2023-03-06T15:43:12.542Z,72.80
2023-03-06T15:46:01.645Z,72.80
2023-03-06T15:49:00.641Z,72.90
2023-03-06T15:51:49.069Z,72.80
2023-03-06T15:54:36.901Z,73.00
2023-03-06T15:57:29.311Z,72.80
2023-03-06T16:00:27.595Z,72.90
2023-03-06T16:03:14.900Z,72.80
2023-03-06T16:06:02.140Z,72.90
2023-03-06T16:08:49.042Z,72.90
2023-03-06T16:11:43.812Z,72.80
2023-03-06T16:14:35.462Z,72.50
2023-03-06T16:17:22.691Z,72.50
2023-03-06T16:20:17.553Z,72.70
2023-03-06T16:23:10.491Z,72.90
2023-03-06T16:25:57.990Z,72.80
2023-03-06T16:28:47.034Z,72.90
2023-03-06T16:31:35.876Z,72.90
2023-03-06T16:34:23.142Z,73.00
2023-03-06T16:37:14.266Z,73.00
2023-03-06T16:40:01.565Z,72.80
2023-03-06T16:42:49.525Z,73.00
2023-03-06T16:45:39.823Z,73.00
2023-03-06T16:48:28.289Z,72.90
2023-03-06T16:51:17.776Z,73.20
2023-03-06T16:54:05.325Z,73.20
2023-03-06T16:56:53.082Z,73.30
2023-03-06T16:59:40.920Z,73.50
2023-03-06T17:02:28.797Z,73.50
2023-03-06T17:05:18.145Z,73.50
2023-03-06T17:08:05.887Z,73.50
2023-03-06T17:10:53.103Z,73.50
2023-03-06T17:13:40.315Z,73.50
2023-03-06T17:16:27.438Z,73.60
2023-03-06T17:19:16.319Z,73.90
2023-03-06T17:22:05.117Z,73.80
2023-03-06T17:24:52.298Z,73.80
2023-03-06T17:27:40.080Z,73.70
2023-03-06T17:30:26.965Z,74.00
2023-03-06T17:33:13.954Z,73.70
2023-03-06T17:36:02.229Z,73.80
2023-03-06T17:38:50.824Z,73.70
2023-03-06T17:41:38.108Z,73.70
2023-03-06T17:44:25.969Z,73.70
2023-03-06T17:47:13.805Z,73.70
2023-03-06T17:50:01.528Z,73.70
2023-03-06T17:52:49.116Z,73.90
2023-03-06T17:55:40.826Z,73.80
2023-03-06T17:58:29.054Z,74.00
2023-03-06T18:01:18.930Z,74.00
2023-03-06T18:04:07.074Z,74.10
2023-03-06T18:06:53.969Z,74.20
2023-03-06T18:09:42.921Z,74.20
2023-03-06T18:12:31.826Z,74.30
2023-03-06T18:15:18.872Z,74.30
2023-03-06T18:18:06.303Z,74.30
2023-03-06T18:20:53.370Z,74.50
2023-03-06T18:23:41.898Z,74.50
2023-03-06T18:26:30.646Z,74.60
2023-03-06T18:29:19.168Z,74.70
2023-03-06T18:32:06.760Z,75.00
2023-03-06T18:34:55.364Z,74.80
2023-03-06T18:37:42.639Z,74.80
2023-03-06T18:40:30.193Z,74.90
2023-03-06T18:43:18.899Z,74.90
2023-03-06T18:46:08.902Z,75.00
2023-03-06T18:48:56.653Z,75.20
2023-03-06T18:51:44.675Z,75.20
2023-03-06T18:54:31.844Z,75.30
2023-03-06T18:57:19.135Z,75.30
2023-03-06T19:00:07.572Z,75.30
2023-03-06T19:02:56.104Z,75.30
2023-03-06T19:05:44.687Z,75.30
2023-03-06T19:08:32.594Z,75.50
2023-03-06T19:11:20.227Z,75.40
2023-03-06T19:14:07.827Z,75.50
2023-03-06T19:16:55.660Z,75.40
2023-03-06T19:19:43.828Z,75.50
2023-03-06T19:22:36.008Z,75.50
2023-03-06T19:25:23.584Z,75.40
2023-03-06T19:28:11.260Z,75.50
2023-03-06T19:30:58.471Z,75.50
2023-03-06T19:33:45.481Z,75.50
2023-03-06T19:36:34.495Z,75.50
2023-03-06T19:39:22.035Z,75.60
2023-03-06T19:42:12.807Z,75.70
2023-03-06T19:45:01.099Z,75.90
2023-03-06T19:47:49.557Z,75.90
2023-03-06T19:50:37.170Z,75.90
2023-03-06T19:53:26.184Z,76.00
2023-03-06T19:56:19.198Z,76.00
2023-03-06T19:59:06.654Z,76.00
2023-03-06T20:01:54.103Z,76.00
2023-03-06T20:04:41.635Z,76.00
2023-03-06T20:07:29.200Z,76.00
2023-03-06T20:10:19.010Z,76.00
2023-03-06T20:13:06.103Z,76.00
2023-03-06T20:15:54.162Z,76.00
2023-03-06T20:18:41.461Z,76.10
2023-03-06T20:21:31.091Z,76.20
2023-03-06T20:24:19.168Z,76.20
2023-03-06T20:27:07.831Z,76.20
2023-03-06T20:29:55.483Z,76.20
2023-03-06T20:32:43.106Z,76.20
2023-03-06T20:35:30.548Z,76.20
2023-03-06T20:38:18.262Z,76.30
2023-03-06T20:41:06.410Z,76.20
2023-03-06T20:43:55.995Z,77.20
2023-03-06T20:46:44.072Z,76.40
2023-03-06T20:49:31.809Z,76.30
2023-03-06T20:52:20.024Z,76.30
2023-03-06T20:55:08.996Z,76.30
2023-03-06T20:57:56.673Z,76.40
2023-03-06T21:00:45.519Z,76.40
2023-03-06T21:03:33.220Z,76.40
2023-03-06T21:06:22.098Z,76.50
2023-03-06T21:09:09.892Z,76.50
2023-03-06T21:11:57.714Z,76.40
2023-03-06T21:14:44.814Z,76.30
2023-03-06T21:17:33.420Z,76.30
2023-03-06T21:20:20.955Z,76.30
2023-03-06T21:23:09.727Z,76.40
2023-03-06T21:25:56.924Z,76.40
2023-03-06T21:28:44.818Z,76.40
2023-03-06T21:31:33.859Z,76.40
2023-03-06T21:34:22.378Z,76.40
2023-03-06T21:37:09.621Z,76.50
2023-03-06T21:40:00.899Z,76.50
2023-03-06T21:42:48.381Z,76.60
2023-03-06T21:45:35.797Z,76.60
2023-03-06T21:48:23.104Z,76.70
2023-03-06T21:51:13.928Z,76.70
2023-03-06T21:54:02.249Z,76.80
2023-03-06T21:56:52.833Z,76.80
2023-03-06T21:59:42.500Z,76.90
2023-03-06T22:02:31.448Z,77.00
2023-03-06T22:05:24.672Z,77.00
2023-03-06T22:08:22.559Z,77.00
2023-03-06T22:11:12.422Z,77.10
2023-03-06T22:13:59.821Z,77.20
2023-03-06T22:16:47.972Z,77.30
2023-03-06T22:19:35.628Z,77.40
2023-03-06T22:22:23.547Z,77.50
2023-03-06T22:25:12.912Z,77.60
2023-03-06T22:28:00.622Z,77.70
2023-03-06T22:30:48.378Z,77.80
2023-03-06T22:33:36.046Z,77.80
2023-03-06T22:36:24.588Z,77.80
2023-03-06T22:39:14.377Z,78.00
2023-03-06T22:42:07.997Z,78.10
2023-03-06T22:44:57.311Z,78.10
2023-03-06T22:47:55.190Z,78.20
2023-03-06T22:50:47.866Z,78.30
2023-03-06T22:53:38.358Z,78.50
2023-03-06T22:56:29.644Z,78.40
2023-03-06T22:59:23.558Z,78.50
2023-03-06T23:02:16.018Z,78.60
2023-03-06T23:05:06.901Z,78.70
2023-03-06T23:07:58.269Z,78.70
2023-03-06T23:10:48.572Z,78.70
2023-03-06T23:13:59.268Z,78.80
2023-03-06T23:17:14.023Z,78.80
2023-03-06T23:20:23.722Z,78.90
2023-03-06T23:23:36.673Z,78.90
2023-03-06T23:26:28.854Z,78.90
2023-03-06T23:29:19.210Z,79.00
2023-03-06T23:32:11.287Z,79.10
2023-03-06T23:35:00.543Z,79.10
2023-03-06T23:37:50.120Z,79.10
2023-03-06T23:40:41.875Z,79.10
2023-03-06T23:43:34.751Z,79.20
2023-03-06T23:46:25.631Z,79.40
2023-03-06T23:49:19.993Z,79.30
2023-03-06T23:52:15.104Z,79.30
2023-03-06T23:55:06.701Z,79.40
2023-03-06T23:57:57.487Z,79.50
